Time;durP1;ratioP1;P1;durP2;ratioP2;P2;SDS_P1;SDS_P2;PMS_P1;PMS_P2;Temp;Humidity;BMP_temperature;BMP_pressure;BME280_temperature;BME280_humidity;BME280_pressure;Samples;Min_cycle;Max_cycle;Signal;HPM_P1;HPM_P2
2022/05/02 00:01:28;;;;;;;22.17;14.38;;;;;;;8.64;100.00;102216.22;5073351;28;20036;-69
2022/05/02 00:03:54;;;;;;;22.13;15.32;;;;;;;8.70;100.00;102213.88;5063692;28;20074;-69
2022/05/02 00:06:19;;;;;;;20.75;14.00;;;;;;;8.66;100.00;102216.31;5074896;28;20024;-70
2022/05/02 00:08:44;;;;;;;16.80;14.23;;;;;;;8.67;100.00;102210.19;5072246;28;20020;-70
2022/05/02 00:11:10;;;;;;;21.33;13.55;;;;;;;8.64;100.00;102213.59;5073991;28;20094;-69
2022/05/02 00:13:35;;;;;;;23.00;13.50;;;;;;;8.55;100.00;102214.06;5073821;28;20036;-70
2022/05/02 00:16:00;;;;;;;18.38;12.93;;;;;;;8.55;100.00;102216.69;5073550;28;20108;-69
2022/05/02 00:18:28;;;;;;;23.02;13.52;;;;;;;8.55;100.00;102218.41;5052723;28;20032;-70
2022/05/02 00:20:54;;;;;;;22.98;13.30;;;;;;;8.51;100.00;102219.09;5073614;28;20140;-70
2022/05/02 00:23:20;;;;;;;22.90;13.07;;;;;;;8.48;100.00;102213.69;5073158;28;20450;-69
2022/05/02 00:25:45;;;;;;;19.08;13.45;;;;;;;8.56;100.00;102213.25;5073064;28;20096;-69
2022/05/02 00:28:13;;;;;;;19.35;13.35;;;;;;;8.55;100.00;102213.16;5071731;28;20082;-69
2022/05/02 00:30:39;;;;;;;18.83;12.98;;;;;;;8.39;100.00;102204.53;5071679;28;20032;-68
2022/05/02 00:33:04;;;;;;;20.30;14.05;;;;;;;8.28;100.00;102208.38;5072991;28;20090;-69
2022/05/02 00:35:30;;;;;;;19.08;13.60;;;;;;;8.18;100.00;102208.75;5071640;28;20032;-70
2022/05/02 00:37:55;;;;;;;19.77;14.13;;;;;;;8.15;100.00;102209.50;5074287;28;20032;-69
2022/05/02 00:40:21;;;;;;;19.00;13.65;;;;;;;8.12;100.00;102208.47;5074112;28;20028;-69
2022/05/02 00:42:47;;;;;;;20.33;13.88;;;;;;;7.96;100.00;102199.81;5074107;28;20496;-69
2022/05/02 00:45:15;;;;;;;19.23;13.27;;;;;;;7.97;100.00;102201.63;5072675;28;20040;-69
2022/05/02 00:47:40;;;;;;;18.02;13.05;;;;;;;7.96;100.00;102196.31;5069782;28;20017;-69
2022/05/02 00:50:08;;;;;;;18.10;13.43;;;;;;;7.94;100.00;102199.75;5070614;28;20411;-68
2022/05/02 00:52:34;;;;;;;18.40;13.68;;;;;;;7.82;100.00;102203.50;5073156;28;20020;-69
2022/05/02 00:55:02;;;;;;;21.08;13.93;;;;;;;7.84;100.00;102191.38;5073335;28;20029;-70
2022/05/02 00:57:29;;;;;;;19.17;13.50;;;;;;;7.84;100.00;102197.53;5072867;28;20028;-70
2022/05/02 00:59:54;;;;;;;19.70;12.65;;;;;;;7.81;100.00;102191.22;5071175;28;20798;-69
2022/05/02 01:02:20;;;;;;;21.65;12.68;;;;;;;7.79;100.00;102191.16;5070914;28;20040;-69
2022/05/02 01:04:45;;;;;;;20.10;13.23;;;;;;;7.81;100.00;102191.22;5072846;28;20085;-68
2022/05/02 01:07:11;;;;;;;20.48;14.05;;;;;;;7.73;100.00;102183.91;5072861;28;20396;-69
2022/05/02 01:09:47;;;;;;;18.00;12.88;;;;;;;7.79;100.00;102187.66;5070423;28;20036;-69
2022/05/02 01:12:15;;;;;;;20.75;13.05;;;;;;;7.75;100.00;102189.19;5071705;28;20032;-69
2022/05/02 01:14:42;;;;;;;15.85;11.90;;;;;;;7.68;100.00;102190.63;5071717;28;20028;-69
2022/05/02 01:17:08;;;;;;;19.25;12.52;;;;;;;7.71;100.00;102189.88;5072089;28;20036;-68
2022/05/02 01:19:34;;;;;;;16.08;12.07;;;;;;;7.68;100.00;102189.72;5087780;28;20049;-69
2022/05/02 01:22:00;;;;;;;17.23;12.80;;;;;;;7.66;100.00;102184.38;5072667;28;20434;-69
2022/05/02 01:24:51;;;;;;;20.73;12.85;;;;;;;7.58;100.00;102183.09;5071753;28;20078;-69
2022/05/02 01:27:17;;;;;;;18.13;11.55;;;;;;;7.60;100.00;102181.47;5069299;28;20044;-69
2022/05/02 01:29:43;;;;;;;18.17;13.40;;;;;;;7.50;100.00;102177.50;5071107;28;20090;-70
2022/05/02 01:32:11;;;;;;;15.65;11.52;;;;;;;7.62;100.00;102190.28;5065800;28;20426;-69
2022/05/02 01:34:40;;;;;;;16.95;11.95;;;;;;;7.64;100.00;102180.81;5071566;28;20036;-70
2022/05/02 01:37:06;;;;;;;17.15;12.07;;;;;;;7.64;100.00;102186.03;5065996;28;20078;-70
2022/05/02 01:39:32;;;;;;;16.58;11.40;;;;;;;7.63;100.00;102175.50;5070322;28;20033;-69
2022/05/02 01:42:05;;;;;;;16.88;12.65;;;;;;;7.60;100.00;102176.25;5071990;28;20033;-68
2022/05/02 01:44:31;;;;;;;18.27;11.48;;;;;;;7.66;100.00;102176.53;5072079;28;20025;-69
2022/05/02 01:46:57;;;;;;;18.08;11.50;;;;;;;7.57;100.00;102178.72;5071126;28;20034;-68
2022/05/02 01:49:23;;;;;;;15.18;11.32;;;;;;;7.69;100.00;102171.47;5067388;28;20480;-69
2022/05/02 01:51:49;;;;;;;15.77;10.77;;;;;;;7.73;100.00;102172.50;5069829;28;20026;-68
2022/05/02 01:54:15;;;;;;;14.63;11.05;;;;;;;7.62;100.00;102169.34;5065090;28;20024;-69
2022/05/02 01:56:40;;;;;;;14.45;11.18;;;;;;;7.57;100.00;102174.34;5072321;28;20040;-69
2022/05/02 01:59:06;;;;;;;15.20;11.43;;;;;;;7.53;100.00;102168.91;5070545;28;20024;-69
2022/05/02 02:01:32;;;;;;;14.15;10.90;;;;;;;7.54;100.00;102165.44;5070141;28;20150;-69
2022/05/02 02:03:59;;;;;;;19.45;11.60;;;;;;;7.69;100.00;102166.22;5070316;28;20036;-68
2022/05/02 02:06:26;;;;;;;14.90;11.18;;;;;;;7.57;100.00;102163.00;5071888;28;20028;-69
2022/05/02 02:08:52;;;;;;;16.00;11.45;;;;;;;7.51;100.00;102157.44;5071366;28;20020;-69
2022/05/02 02:11:17;;;;;;;15.07;10.82;;;;;;;7.40;100.00;102157.78;5071311;28;20051;-69
2022/05/02 02:13:43;;;;;;;15.82;11.57;;;;;;;7.40;100.00;102167.38;5071928;28;20143;-71
2022/05/02 02:16:10;;;;;;;15.18;11.38;;;;;;;7.38;100.00;102162.06;5070675;28;20137;-69
2022/05/02 02:18:37;;;;;;;18.00;10.98;;;;;;;7.36;100.00;102162.78;5071630;28;20552;-69
2022/05/02 02:21:03;;;;;;;17.45;11.07;;;;;;;7.28;100.00;102165.00;5070855;28;20387;-70
2022/05/02 02:23:29;;;;;;;15.02;9.70;;;;;;;7.28;100.00;102165.00;5070098;28;20035;-69
2022/05/02 02:25:54;;;;;;;15.80;10.73;;;;;;;7.21;100.00;102160.28;5071596;28;20017;-69
2022/05/02 02:28:20;;;;;;;18.10;10.63;;;;;;;7.15;100.00;102171.34;5070908;28;20025;-68
2022/05/02 02:30:45;;;;;;;19.90;10.52;;;;;;;7.17;100.00;102163.56;5069732;28;20028;-69
2022/05/02 02:33:11;;;;;;;14.07;10.10;;;;;;;7.17;100.00;102169.69;5071279;28;20032;-70
2022/05/02 02:35:37;;;;;;;16.80;11.30;;;;;;;7.19;100.00;102168.06;5066251;28;20028;-69
2022/05/02 02:38:05;;;;;;;17.88;11.35;;;;;;;7.20;100.00;102162.03;5086188;28;20176;-68
2022/05/02 02:40:31;;;;;;;14.93;10.50;;;;;;;7.26;100.00;102153.56;5070133;28;20030;-68
2022/05/02 02:42:56;;;;;;;14.52;10.15;;;;;;;7.19;100.00;102157.59;5071248;28;20056;-69
2022/05/02 02:45:22;;;;;;;16.50;10.82;;;;;;;7.11;100.00;102163.25;5069923;28;20052;-70
2022/05/02 02:47:48;;;;;;;15.57;11.05;;;;;;;7.07;100.00;102162.19;5070801;28;20085;-70
2022/05/02 02:50:13;;;;;;;14.30;10.90;;;;;;;7.05;100.00;102158.59;5069787;28;20472;-69
2022/05/02 02:52:39;;;;;;;13.82;10.73;;;;;;;6.98;100.00;102157.38;5072085;28;20107;-70
2022/05/02 02:55:05;;;;;;;14.20;10.40;;;;;;;7.07;100.00;102159.59;5070950;28;20028;-69
2022/05/02 02:57:30;;;;;;;13.95;10.70;;;;;;;7.03;100.00;102150.66;5071692;28;20032;-69
2022/05/02 02:59:56;;;;;;;13.25;10.60;;;;;;;6.98;100.00;102146.00;5068895;28;20020;-70
2022/05/02 03:02:21;;;;;;;21.15;11.45;;;;;;;6.94;100.00;102150.19;5070053;28;20063;-69
2022/05/02 03:07:31;;;;;;;14.65;10.80;;;;;;;6.81;100.00;102142.50;5066301;28;20102;-69
2022/05/02 03:09:58;;;;;;;14.63;10.80;;;;;;;7.13;100.00;102152.03;5075707;28;20032;-70
2022/05/02 03:12:24;;;;;;;18.55;11.25;;;;;;;7.00;100.00;102139.13;5074397;28;20124;-71
2022/05/02 03:14:50;;;;;;;15.43;11.18;;;;;;;7.01;100.00;102147.09;5074967;28;20376;-69
2022/05/02 03:17:16;;;;;;;13.63;10.63;;;;;;;6.96;100.00;102145.00;5075413;28;20025;-69
2022/05/02 03:19:41;;;;;;;16.00;11.20;;;;;;;6.91;100.00;102144.78;5074590;28;20381;-70
2022/05/02 03:22:07;;;;;;;15.82;11.23;;;;;;;6.84;100.00;102142.69;5075322;28;20032;-69
2022/05/02 03:24:32;;;;;;;16.67;10.88;;;;;;;6.80;100.00;102139.00;5073332;28;20028;-68
2022/05/02 03:26:58;;;;;;;13.65;11.10;;;;;;;6.89;100.00;102135.94;5074728;28;20481;-69
2022/05/02 03:29:24;;;;;;;17.55;10.98;;;;;;;6.74;100.00;102131.72;5074370;28;20388;-70
2022/05/02 03:31:49;;;;;;;18.40;10.93;;;;;;;6.62;100.00;102133.69;5073835;28;20094;-69
2022/05/02 03:34:15;;;;;;;13.18;10.27;;;;;;;6.53;100.00;102136.69;5074857;28;20395;-68
2022/05/02 03:36:40;;;;;;;14.23;11.13;;;;;;;6.57;100.00;102132.53;5074279;28;20039;-68
2022/05/02 03:39:06;;;;;;;17.00;11.57;;;;;;;6.56;100.00;102135.97;5075381;28;20379;-70
2022/05/02 03:41:31;;;;;;;14.75;10.80;;;;;;;6.51;100.00;102133.13;5072965;28;20036;-68
2022/05/02 03:43:57;;;;;;;14.95;10.27;;;;;;;6.52;100.00;102123.53;5060593;28;20021;-72
2022/05/02 03:46:22;;;;;;;14.88;11.13;;;;;;;6.51;100.00;102134.81;5074509;28;20381;-70
2022/05/02 03:48:48;;;;;;;15.15;11.20;;;;;;;6.44;100.00;102130.06;5074359;28;20043;-68
2022/05/02 03:51:13;;;;;;;18.60;11.52;;;;;;;6.40;100.00;102135.16;5072881;28;20387;-70
2022/05/02 03:53:39;;;;;;;17.00;12.02;;;;;;;6.38;100.00;102131.53;5069585;28;20028;-69
2022/05/02 03:56:04;;;;;;;14.40;11.23;;;;;;;6.40;100.00;102135.16;5074460;28;20037;-68
2022/05/02 03:58:30;;;;;;;14.70;11.13;;;;;;;6.41;100.00;102136.91;5074709;28;20082;-69
2022/05/02 04:00:56;;;;;;;17.90;12.23;;;;;;;6.42;100.00;102143.06;5074527;28;20028;-69
2022/05/02 04:03:21;;;;;;;16.23;12.15;;;;;;;6.38;100.00;102135.88;5072681;28;20047;-70
2022/05/02 04:05:47;;;;;;;17.02;12.30;;;;;;;6.41;100.00;102142.16;5072987;28;20048;-69
2022/05/02 04:08:12;;;;;;;16.83;11.70;;;;;;;6.37;100.00;102129.72;5074392;28;20032;-70
2022/05/02 04:10:38;;;;;;;16.55;11.40;;;;;;;6.36;100.00;102135.78;5062241;28;20021;-69
2022/05/02 04:13:03;;;;;;;17.20;11.32;;;;;;;6.40;100.00;102148.22;5074702;28;20032;-70
2022/05/02 04:15:28;;;;;;;18.30;11.93;;;;;;;6.39;100.00;102138.56;5073818;28;20036;-68
2022/05/02 04:17:55;;;;;;;18.13;12.77;;;;;;;6.41;100.00;102151.72;5071675;28;20028;-70
2022/05/02 04:20:21;;;;;;;20.23;11.95;;;;;;;6.38;100.00;102141.09;5070199;28;20098;-69
2022/05/02 04:22:47;;;;;;;13.90;10.77;;;;;;;6.38;100.00;102151.56;5074949;28;20464;-70
2022/05/02 04:25:12;;;;;;;14.75;11.38;;;;;;;6.40;100.00;102148.22;5073764;28;20387;-70
2022/05/02 04:27:37;;;;;;;16.92;11.52;;;;;;;6.50;100.00;102146.09;5074148;28;20153;-71
2022/05/02 04:30:03;;;;;;;18.73;11.25;;;;;;;6.45;100.00;102151.06;5073353;28;20081;-70
2022/05/02 04:32:28;;;;;;;16.40;11.88;;;;;;;6.52;100.00;102150.56;5070233;28;20488;-71
2022/05/02 04:34:55;;;;;;;21.48;12.73;;;;;;;6.63;100.00;102150.28;5072065;28;20048;-68
2022/05/02 04:37:21;;;;;;;17.73;11.88;;;;;;;6.64;100.00;102152.06;5071744;28;20058;-69
2022/05/02 04:39:46;;;;;;;19.67;13.07;;;;;;;6.56;100.00;102152.53;5072719;28;20145;-68
2022/05/02 04:42:12;;;;;;;16.13;12.07;;;;;;;6.67;100.00;102150.50;5074036;28;20032;-69
2022/05/02 04:44:37;;;;;;;20.33;12.90;;;;;;;6.66;100.00;102156.56;5071286;28;20037;-70
2022/05/02 04:47:03;;;;;;;21.02;13.73;;;;;;;6.68;100.00;102152.31;5071479;28;20511;-70
2022/05/02 04:49:28;;;;;;;21.60;13.65;;;;;;;6.64;100.00;102150.34;5073564;28;20084;-70
2022/05/02 04:51:53;;;;;;;19.30;12.30;;;;;;;6.64;100.00;102154.69;5073146;28;20395;-70
2022/05/02 04:54:19;;;;;;;19.20;13.05;;;;;;;6.64;100.00;102150.34;5071862;28;20036;-68
2022/05/02 04:56:44;;;;;;;18.55;12.70;;;;;;;6.66;100.00;102148.72;5073393;28;20020;-70
2022/05/02 04:59:09;;;;;;;20.10;13.32;;;;;;;6.83;100.00;102151.34;5073213;28;20027;-70
2022/05/02 05:01:35;;;;;;;16.98;13.05;;;;;;;6.82;100.00;102149.53;5072697;28;20023;-69
2022/05/02 05:04:01;;;;;;;16.83;11.40;;;;;;;6.98;100.00;102149.50;5071199;28;20117;-70
2022/05/02 05:06:26;;;;;;;19.85;12.98;;;;;;;6.97;100.00;102155.56;5071333;28;20245;-68
2022/05/02 05:08:51;;;;;;;19.88;13.55;;;;;;;7.01;100.00;102162.78;5071509;28;20042;-69
2022/05/02 05:11:55;;;;;;;19.60;14.10;;;;;;;7.04;100.00;102152.47;5055118;28;20043;-69
2022/05/02 05:17:56;;;;;;;18.33;12.95;;;;;;;7.12;100.00;102160.69;5072296;28;20067;-69
2022/05/02 05:21:07;;;;;;;24.27;14.10;;;;;;;7.28;100.00;102156.28;5081371;28;20080;-69
2022/05/02 05:23:50;;;;;;;19.45;13.68;;;;;;;7.22;100.00;102157.75;5007913;28;20534;-70
2022/05/02 05:26:20;;;;;;;22.75;14.32;;;;;;;7.24;100.00;102152.59;5009899;28;20056;-70
2022/05/02 05:29:04;;;;;;;21.63;14.07;;;;;;;7.39;100.00;102149.84;5051053;28;20067;-69
2022/05/02 05:31:50;;;;;;;19.48;13.75;;;;;;;7.37;100.00;102154.13;5088951;28;20063;-70
2022/05/02 05:34:30;;;;;;;18.45;13.98;;;;;;;7.37;100.00;102151.50;5073075;28;20107;-70
2022/05/02 05:37:33;;;;;;;20.85;14.63;;;;;;;7.31;100.00;102149.47;5061562;28;20040;-72
2022/05/02 05:40:08;;;;;;;18.92;14.00;;;;;;;7.37;100.00;102151.50;5073257;28;20028;-71
2022/05/02 05:42:45;;;;;;;22.83;15.02;;;;;;;7.47;100.00;102151.13;5071571;28;20493;-70
2022/05/02 05:45:15;;;;;;;22.08;14.32;;;;;;;7.63;100.00;102155.41;5080124;28;20131;-69
2022/05/02 05:48:06;;;;;;;19.73;14.60;;;;;;;7.68;100.00;102151.31;5072718;28;20047;-72
2022/05/02 05:50:37;;;;;;;24.85;16.08;;;;;;;7.74;100.00;102153.34;5073067;28;20040;-70
2022/05/02 05:53:07;;;;;;;20.20;14.85;;;;;;;7.76;100.00;102155.22;5070876;28;20325;-68
2022/05/02 05:56:06;;;;;;;21.10;14.50;;;;;;;7.79;100.00;102157.09;5070023;28;20036;-69
2022/05/02 05:58:54;;;;;;;20.38;13.40;;;;;;;7.95;100.00;102161.38;5071880;28;20028;-70
2022/05/02 06:01:37;;;;;;;20.95;14.07;;;;;;;8.02;100.00;102166.06;5063625;28;20036;-70
2022/05/02 06:04:07;;;;;;;21.13;14.50;;;;;;;8.09;100.00;102157.66;5069736;28;20043;-72
2022/05/02 06:06:34;;;;;;;19.50;13.73;;;;;;;8.12;100.00;102162.16;5070510;28;20369;-69
2022/05/02 06:09:00;;;;;;;22.17;13.25;;;;;;;8.09;100.00;102156.78;5069019;28;20032;-70
2022/05/02 06:11:27;;;;;;;20.98;14.30;;;;;;;8.15;100.00;102158.78;5069952;28;20032;-69
2022/05/02 06:13:58;;;;;;;18.92;13.48;;;;;;;8.10;100.00;102167.34;5071517;28;20032;-68
2022/05/02 06:19:17;;;;;;;23.88;15.18;;;;;;;8.06;100.00;102165.38;5072185;28;20055;-69
2022/05/02 06:21:44;;;;;;;20.90;14.43;;;;;;;8.20;100.00;102159.91;5069646;28;20031;-68
2022/05/02 06:24:11;;;;;;;20.02;15.23;;;;;;;8.19;100.00;102161.66;5070682;28;20115;-68
2022/05/02 06:26:38;;;;;;;19.83;13.98;;;;;;;8.18;100.00;102167.72;5071218;28;20024;-68
2022/05/02 06:29:07;;;;;;;19.75;13.80;;;;;;;8.33;100.00;102162.28;5069906;28;20081;-68
2022/05/02 06:31:36;;;;;;;22.27;14.75;;;;;;;8.44;100.00;102161.06;5068821;28;20036;-70
2022/05/02 06:34:02;;;;;;;25.35;15.50;;;;;;;8.51;100.00;102171.88;5072064;28;20028;-69
2022/05/02 06:37:02;;;;;;;23.80;14.65;;;;;;;8.58;100.00;102171.34;5071098;28;20506;-69
2022/05/02 06:39:42;;;;;;;21.08;14.40;;;;;;;8.66;100.00;102163.81;5074653;28;20412;-70
2022/05/02 06:42:36;;;;;;;22.33;14.88;;;;;;;8.77;100.00;102162.56;5073770;28;20028;-71
2022/05/02 06:45:22;;;;;;;22.08;14.52;;;;;;;8.88;100.00;102163.06;5064576;28;20177;-70
2022/05/02 06:48:06;;;;;;;21.98;15.30;;;;;;;9.00;100.00;102162.72;5075439;28;20028;-69
2022/05/02 06:50:38;;;;;;;20.35;14.77;;;;;;;9.06;100.00;102163.88;5075493;28;20131;-69
2022/05/02 06:53:27;;;;;;;19.80;13.40;;;;;;;9.13;100.00;102156.25;5075785;28;20082;-70
2022/05/02 06:55:58;;;;;;;21.27;13.98;;;;;;;9.20;100.00;102155.72;5076404;28;20032;-70
2022/05/02 06:58:42;;;;;;;22.40;13.75;;;;;;;9.30;100.00;102154.38;5075719;28;20024;-70
2022/05/02 07:01:35;;;;;;;18.85;13.90;;;;;;;9.38;100.00;102155.59;5074195;28;20033;-70
2022/05/02 07:04:00;;;;;;;20.80;14.20;;;;;;;9.46;100.00;102159.44;5076212;28;20055;-70
2022/05/02 07:07:11;;;;;;;15.90;12.15;;;;;;;9.60;100.00;102162.66;5075935;28;20429;-69
2022/05/02 07:09:50;;;;;;;18.98;13.00;;;;;;;9.69;100.00;102163.03;5074326;28;20028;-68
2022/05/02 07:12:19;;;;;;;14.75;12.32;;;;;;;9.78;100.00;102158.16;5074737;28;20069;-70
2022/05/02 07:15:03;;;;;;;23.00;12.40;;;;;;;9.91;100.00;102159.53;5074776;28;20077;-71
2022/05/02 07:17:55;;;;;;;17.67;13.10;;;;;;;10.02;100.00;102156.47;5062442;28;20476;-70
2022/05/02 07:20:58;;;;;;;21.08;13.15;;;;;;;10.07;100.00;102155.78;5073306;28;20089;-70
2022/05/02 07:24:02;;;;;;;16.77;12.50;;;;;;;10.11;100.00;102157.72;5075764;28;20147;-70
2022/05/02 07:26:30;;;;;;;20.73;13.70;;;;;;;10.22;100.00;102157.25;5075936;28;20077;-70
2022/05/02 07:29:00;;;;;;;17.63;12.38;;;;;;;10.33;100.00;102158.56;5075606;28;20063;-69
2022/05/02 07:31:25;;;;;;;19.42;12.20;;;;;;;10.39;100.00;102161.47;5073927;28;20025;-71
2022/05/02 07:33:52;;;;;;;93.35;15.25;;;;;;;10.45;100.00;102153.78;5075656;28;20031;-70
2022/05/02 07:36:22;;;;;;;19.20;12.68;;;;;;;10.50;100.00;102154.00;5074082;28;20107;-70
2022/05/02 07:38:52;;;;;;;18.13;12.50;;;;;;;10.65;99.97;102151.03;5074353;28;20021;-70
2022/05/02 07:41:23;;;;;;;15.77;10.90;;;;;;;10.73;98.97;102151.28;5074841;28;20020;-69
2022/05/02 07:43:56;;;;;;;18.10;11.20;;;;;;;10.71;95.44;102151.25;5075530;28;20029;-69
2022/05/02 07:46:26;;;;;;;16.35;11.60;;;;;;;10.82;94.35;102148.13;5075295;28;20492;-70
2022/05/02 07:48:55;;;;;;;16.85;10.20;;;;;;;10.88;91.97;102154.50;5074159;28;20099;-70
2022/05/02 07:51:21;;;;;;;15.93;10.43;;;;;;;10.98;90.70;102139.94;5071794;28;20498;-70
2022/05/02 07:53:50;;;;;;;13.65;10.10;;;;;;;11.14;91.29;102142.25;5073674;28;20052;-70
2022/05/02 07:56:16;;;;;;;19.58;11.68;;;;;;;11.24;92.83;102147.84;5072267;28;20021;-70
2022/05/02 07:58:45;;;;;;;17.67;11.45;;;;;;;11.27;92.22;102148.88;5072938;28;20514;-70
2022/05/02 08:01:11;;;;;;;20.15;12.52;;;;;;;11.29;94.01;102154.19;5072163;28;20062;-69
2022/05/02 08:03:36;;;;;;;19.48;11.35;;;;;;;11.37;93.90;102155.34;5071461;28;20045;-70
2022/05/02 08:06:33;;;;;;;18.33;11.10;;;;;;;11.40;92.38;102149.28;5074236;28;20107;-70
2022/05/02 08:09:26;;;;;;;14.18;11.13;;;;;;;11.47;89.17;102140.75;5073366;28;20517;-71
2022/05/02 08:12:27;;;;;;;15.38;10.57;;;;;;;11.55;88.06;102143.66;5072210;28;20028;-71
2022/05/02 08:15:01;;;;;;;16.05;10.35;;;;;;;11.70;87.84;102144.13;5072283;28;20039;-71
2022/05/02 08:17:50;;;;;;;17.13;10.07;;;;;;;11.90;85.53;102146.53;5072411;28;20039;-69
2022/05/02 08:20:49;;;;;;;14.93;10.40;;;;;;;12.16;84.09;102141.22;5072944;28;20051;-72
2022/05/02 08:30:03;;;;;;;15.23;10.25;;;;;;;12.69;82.86;102141.91;5067509;28;20101;-72
2022/05/02 08:32:42;;;;;;;13.85;10.20;;;;;;;12.82;80.29;102144.06;5077476;28;20020;-71
2022/05/02 08:35:46;;;;;;;13.32;8.75;;;;;;;13.08;76.71;102146.53;5076324;28;20024;-71
2022/05/02 08:38:40;;;;;;;10.93;8.15;;;;;;;13.21;74.90;102141.56;5063558;28;20369;-71
2022/05/02 08:41:08;;;;;;;11.57;8.77;;;;;;;13.14;74.64;102145.78;5062742;28;20082;-71
2022/05/02 08:44:07;;;;;;;15.65;9.18;;;;;;;13.16;77.16;102144.97;5074267;28;20032;-71
2022/05/02 08:46:33;;;;;;;20.52;10.18;;;;;;;13.24;78.30;102147.84;5076347;28;20043;-71
2022/05/02 08:52:22;;;;;;;16.98;10.40;;;;;;;13.43;74.27;102138.69;5072038;28;20044;-71
2022/05/02 08:55:03;;;;;;;15.13;9.05;;;;;;;13.66;73.47;102143.66;5087757;28;20089;-71
2022/05/02 08:58:09;;;;;;;14.10;8.60;;;;;;;13.85;73.62;102146.72;5074323;28;20024;-73
2022/05/02 09:01:07;;;;;;;12.02;8.10;;;;;;;14.07;68.54;102140.22;5034007;28;20044;-72
2022/05/02 09:04:09;;;;;;;12.43;8.60;;;;;;;14.21;70.85;102149.34;5072123;28;20024;-72
2022/05/02 09:07:05;;;;;;;12.73;8.55;;;;;;;14.10;70.67;102151.75;5072538;28;20862;-72
2022/05/02 09:10:07;;;;;;;12.50;8.50;;;;;;;13.92;68.18;102144.28;5063113;28;20349;-73
2022/05/02 09:12:48;;;;;;;11.60;8.23;;;;;;;14.29;71.62;102149.53;5070173;28;21916;-72
2022/05/02 09:15:44;;;;;;;10.90;7.85;;;;;;;14.46;66.91;102142.84;5072108;28;20472;-72
2022/05/02 09:18:48;;;;;;;12.23;7.90;;;;;;;14.31;63.70;102132.81;5072325;28;20032;-72
2022/05/02 09:21:13;;;;;;;10.35;7.20;;;;;;;14.56;67.33;102141.28;5070170;28;20048;-71
2022/05/02 09:24:11;;;;;;;11.30;7.82;;;;;;;14.84;68.58;102139.22;5069190;28;20078;-70
2022/05/02 09:26:51;;;;;;;12.80;7.93;;;;;;;14.95;64.21;102135.03;5074538;28;20111;-73
2022/05/02 09:29:39;;;;;;;15.68;8.02;;;;;;;14.97;66.75;102135.06;5087223;28;20032;-72
2022/05/02 09:32:22;;;;;;;12.43;8.20;;;;;;;15.19;64.58;102133.69;5068347;28;20074;-73
2022/05/02 09:34:58;;;;;;;10.30;7.43;;;;;;;15.38;63.58;102123.41;5070335;28;20019;-72
2022/05/02 09:37:40;;;;;;;8.85;7.07;;;;;;;15.50;61.63;102124.53;5069087;28;20388;-72
2022/05/02 09:40:14;;;;;;;13.75;7.78;;;;;;;15.65;61.11;102126.53;5068181;28;20103;-72
2022/05/02 09:43:16;;;;;;;14.70;7.13;;;;;;;15.79;61.25;102124.09;5071481;28;20131;-71
2022/05/02 09:52:01;;;;;;;15.15;7.43;;;;;;;16.32;59.50;102120.47;5066625;28;20047;-71
2022/05/02 09:57:24;;;;;;;;;;;;;;;16.68;61.15;102118.22;5071341;28;20044;-71
2022/05/02 10:02:44;;;;;;;11.25;6.90;;;;;;;16.93;56.80;102114.13;5070027;28;20044;-72
2022/05/02 10:05:10;;;;;;;8.73;6.22;;;;;;;16.99;54.86;102110.63;5069660;28;20028;-71
2022/05/02 10:07:55;;;;;;;10.57;6.40;;;;;;;17.12;54.29;102107.22;5070416;28;20368;-71
2022/05/02 10:10:34;;;;;;;10.35;6.63;;;;;;;17.08;51.98;102108.06;5072650;28;20480;-72
2022/05/02 10:13:03;;;;;;;12.70;6.35;;;;;;;17.10;51.02;102100.97;5069730;28;20047;-71
2022/05/02 10:15:49;;;;;;;11.50;6.80;;;;;;;17.14;53.22;102102.78;5071836;28;20448;-71
2022/05/02 10:18:17;;;;;;;9.93;6.60;;;;;;;17.30;52.27;102108.28;5072365;28;20024;-73
2022/05/02 10:20:55;;;;;;;7.38;6.18;;;;;;;17.38;50.65;102103.91;5070408;28;20053;-71
2022/05/02 10:23:23;;;;;;;9.98;7.07;;;;;;;17.41;50.74;102106.59;5069035;28;20052;-72
2022/05/02 10:26:44;;;;;;;10.70;7.57;;;;;;;17.47;51.10;102101.34;5071355;28;20035;-72
2022/05/02 10:29:32;;;;;;;10.40;6.53;;;;;;;17.66;48.57;102093.47;5019375;28;20037;-72
2022/05/02 10:32:10;;;;;;;12.05;6.65;;;;;;;17.92;48.78;102092.78;5066447;28;20445;-72
2022/05/02 10:34:37;;;;;;;12.80;7.43;;;;;;;17.98;47.17;102087.50;5072146;28;20112;-71
2022/05/02 10:37:07;;;;;;;10.88;6.63;;;;;;;18.10;47.39;102086.69;5068313;28;20059;-71
2022/05/02 10:39:44;;;;;;;9.52;6.55;;;;;;;18.05;47.00;102088.44;5068038;28;20093;-72
2022/05/02 10:42:12;;;;;;;9.23;7.53;;;;;;;18.31;46.01;102091.22;5069267;28;20042;-72
2022/05/02 10:45:02;;;;;;;9.18;6.97;;;;;;;18.31;44.99;102091.22;5070879;28;20035;-71
2022/05/02 10:47:37;;;;;;;8.30;6.40;;;;;;;18.45;45.08;102078.84;5067626;28;20021;-72
2022/05/02 10:50:14;;;;;;;9.73;6.53;;;;;;;18.54;43.54;102083.31;5067719;28;20427;-72
2022/05/02 10:52:46;;;;;;;7.60;6.32;;;;;;;18.74;44.92;102080.72;5067899;28;20028;-72
2022/05/02 10:55:25;;;;;;;8.13;6.00;;;;;;;18.93;42.87;102075.44;5067483;28;20060;-71
2022/05/02 10:57:59;;;;;;;7.00;5.30;;;;;;;19.23;39.39;102069.25;5064930;28;20035;-72
2022/05/02 11:00:26;;;;;;;9.98;6.97;;;;;;;19.11;40.33;102070.13;5071764;28;20478;-72
2022/05/02 11:03:12;;;;;;;7.32;6.03;;;;;;;19.21;41.12;102079.91;5072411;28;20141;-72
2022/05/02 11:05:47;;;;;;;8.02;6.32;;;;;;;19.37;42.83;102078.16;5069793;28;20123;-71
2022/05/02 11:08:26;;;;;;;10.23;7.53;;;;;;;19.19;42.51;102081.72;5069002;28;20059;-72
2022/05/02 11:11:02;;;;;;;11.00;8.15;;;;;;;19.19;41.28;102072.78;5067488;28;20024;-72
2022/05/02 11:13:44;;;;;;;12.07;8.02;;;;;;;19.31;39.73;102066.59;5069615;28;20361;-71
2022/05/02 11:16:13;;;;;;;14.00;7.00;;;;;;;19.39;41.77;102062.13;5070444;28;20035;-72
2022/05/02 11:22:26;;;;;;;11.52;6.57;;;;;;;19.82;39.76;102062.09;5066774;28;20062;-72
2022/05/02 11:25:06;;;;;;;7.23;6.40;;;;;;;19.52;40.47;102061.22;5069513;28;20024;-72
2022/05/02 11:27:50;;;;;;;7.28;6.35;;;;;;;20.24;40.30;102058.38;5073488;28;20028;-71
2022/05/02 11:30:20;;;;;;;8.75;5.90;;;;;;;20.58;38.20;102048.44;5072580;28;20153;-72
2022/05/02 11:33:03;;;;;;;11.52;7.05;;;;;;;20.67;35.28;102044.78;5073343;28;20028;-73
2022/05/02 11:35:36;;;;;;;13.38;6.88;;;;;;;20.64;37.17;102047.50;5073114;28;20487;-73
2022/05/02 11:38:15;;;;;;;12.05;7.10;;;;;;;20.48;38.99;102050.28;5070641;28;20384;-73
2022/05/02 11:40:47;;;;;;;13.70;8.02;;;;;;;20.46;41.75;102051.19;5087355;28;20024;-72
2022/05/02 11:43:18;;;;;;;9.27;7.75;;;;;;;20.44;40.23;102053.81;5074994;28;20090;-72
2022/05/02 11:45:50;;;;;;;10.55;7.15;;;;;;;20.79;40.21;102050.09;5074888;28;20043;-73
2022/05/02 11:48:51;;;;;;;9.00;7.20;;;;;;;20.63;39.45;102045.72;5073725;28;20031;-72
2022/05/02 11:51:28;;;;;;;10.30;6.10;;;;;;;21.07;38.20;102049.91;5040260;28;20040;-72
2022/05/02 11:53:57;;;;;;;9.95;6.10;;;;;;;21.56;36.00;102045.94;5074103;28;20088;-73
2022/05/02 11:56:33;;;;;;;6.50;5.45;;;;;;;21.50;35.51;102051.31;5074892;28;20122;-72
2022/05/02 11:59:05;;;;;;;7.45;6.43;;;;;;;22.04;33.59;102032.00;5074758;28;20325;-73
2022/05/02 12:01:37;;;;;;;9.63;6.60;;;;;;;22.29;34.28;102034.34;5070990;28;20380;-72
2022/05/02 12:04:03;;;;;;;10.05;7.47;;;;;;;21.93;34.88;102041.97;5073660;28;20421;-72
2022/05/02 12:06:41;;;;;;;7.97;6.90;;;;;;;21.76;32.58;102032.34;5072457;28;20492;-73
2022/05/02 12:09:22;;;;;;;11.88;7.10;;;;;;;21.37;33.45;102030.00;5073034;28;20024;-72
2022/05/02 12:11:52;;;;;;;11.18;6.20;;;;;;;21.28;38.11;102042.59;5065466;28;20024;-73
2022/05/02 12:14:19;;;;;;;10.00;6.35;;;;;;;20.96;40.14;102049.09;5073498;28;20054;-71